Time;durP1;ratioP1;P1;durP2;ratioP2;P2;SDS_P1;SDS_P2;PMS_P1;PMS_P2;Temp;Humidity;BMP_temperature;BMP_pressure;BME280_temperature;BME280_humidity;BME280_pressure;Samples;Min_cycle;Max_cycle;Signal;HPM_P1;HPM_P2
2023/06/20 00:02:06;;;;;;;10.07;6.23;;;22.50;1.00;;;;;;5032378;28;20412;-73
2023/06/20 00:04:32;;;;;;;18.73;7.07;;;22.40;1.00;;;;;;5033258;28;20222;-73
2023/06/20 00:06:57;;;;;;;9.50;6.60;;;22.50;1.00;;;;;;5033185;28;20193;-73
2023/06/20 00:09:33;;;;;;;10.93;6.90;;;22.50;1.00;;;;;;5032934;28;20190;-73
2023/06/20 00:11:59;;;;;;;12.83;6.77;;;22.60;1.00;;;;;;5036701;28;20272;-73
2023/06/20 00:14:24;;;;;;;9.27;7.57;;;22.60;1.00;;;;;;5037748;28;20516;-73
2023/06/20 00:16:51;;;;;;;16.80;7.03;;;22.60;1.00;;;;;;5035775;28;20228;-73
2023/06/20 00:19:17;;;;;;;9.47;6.80;;;22.50;1.00;;;;;;5037382;28;20679;-73
2023/06/20 00:21:45;;;;;;;10.23;5.83;;;22.50;1.00;;;;;;5037220;28;20513;-73
2023/06/20 00:24:11;;;;;;;8.63;5.97;;;22.50;1.00;;;;;;5033758;28;20237;-73
2023/06/20 00:26:39;;;;;;;9.63;6.70;;;22.50;1.00;;;;;;5037202;28;20928;-73
2023/06/20 00:29:05;;;;;;;8.43;7.03;;;22.50;1.00;;;;;;5037479;28;20661;-79
2023/06/20 00:31:31;;;;;;;10.63;7.13;;;22.50;1.00;;;;;;5037358;28;20473;-79
2023/06/20 00:34:03;;;;;;;14.27;7.80;;;22.40;1.00;;;;;;5052412;28;20194;-79
2023/06/20 00:36:39;;;;;;;12.17;7.70;;;22.40;1.00;;;;;;5029952;28;20618;-79
2023/06/20 00:39:27;;;;;;;11.90;7.33;;;22.40;1.00;;;;;;5036632;28;20382;-79
2023/06/20 00:42:39;;;;;;;8.50;6.70;;;22.40;1.00;;;;;;5036748;28;20425;-79
2023/06/20 00:45:30;;;;;;;9.00;7.17;;;22.30;1.00;;;;;;5034875;28;20456;-73
2023/06/20 00:47:57;;;;;;;9.57;7.60;;;22.20;1.00;;;;;;5036552;28;20438;-73
2023/06/20 00:50:29;;;;;;;12.93;8.40;;;22.90;1.00;;;;;;5036488;28;20988;-73
2023/06/20 00:53:05;;;;;;;12.27;8.23;;;22.10;1.00;;;;;;5036433;28;20432;-73
2023/06/20 00:55:35;;;;;;;10.30;7.33;;;22.10;1.00;;;;;;5036062;28;20461;-73
2023/06/20 00:58:02;;;;;;;10.17;8.10;;;22.10;1.00;;;;;;5036529;28;20484;-73
2023/06/20 01:00:32;;;;;;;12.63;8.33;;;22.10;1.00;;;;;;5036321;28;20443;-79
2023/06/20 01:03:06;;;;;;;15.77;8.10;;;22.00;1.00;;;;;;5042597;28;20491;-79
2023/06/20 01:05:33;;;;;;;13.23;8.50;;;22.00;1.00;;;;;;5047603;28;20996;-79
2023/06/20 01:08:17;;;;;;;10.67;8.97;;;22.00;1.00;;;;;;5038235;28;20430;-79
2023/06/20 01:11:21;;;;;;;11.03;8.53;;;22.00;1.00;;;;;;5026450;28;20794;-79
2023/06/20 01:14:21;;;;;;;10.77;8.80;;;21.90;1.00;;;;;;4977561;28;20436;-79
2023/06/20 01:17:00;;;;;;;17.13;9.40;;;21.90;1.00;;;;;;4979995;28;20822;-73
2023/06/20 01:20:10;;;;;;;10.50;8.23;;;21.90;1.00;;;;;;4985217;28;20460;-74
2023/06/20 01:22:49;;;;;;;14.87;8.90;;;21.80;1.00;;;;;;4917442;29;20484;-73
2023/06/20 01:25:54;;;;;;;12.87;9.67;;;21.70;1.00;;;;;;4919565;29;20480;-73
2023/06/20 01:28:35;;;;;;;11.70;9.00;;;21.70;1.00;;;;;;4917862;29;20928;-73
2023/06/20 01:31:08;;;;;;;13.60;9.40;;;21.70;1.00;;;;;;4917163;29;20448;-79
2023/06/20 01:34:09;;;;;;;12.63;9.57;;;21.60;1.00;;;;;;4916625;29;20480;-79
2023/06/20 01:37:21;;;;;;;14.40;10.20;;;21.60;1.00;;;;;;4921361;29;20915;-79
2023/06/20 01:39:51;;;;;;;10.83;9.00;;;21.60;1.00;;;;;;4909627;29;20485;-79
2023/06/20 01:42:29;;;;;;;10.90;8.90;;;21.60;1.00;;;;;;4918261;29;20441;-78
2023/06/20 01:44:58;;;;;;;15.13;10.07;;;21.60;1.00;;;;;;4921132;29;20479;-73
2023/06/20 01:47:25;;;;;;;10.57;9.00;;;21.60;1.00;;;;;;4913424;29;20466;-73
2023/06/20 01:49:53;;;;;;;10.90;8.30;;;21.60;1.00;;;;;;4931299;28;20432;-73
2023/06/20 01:52:22;;;;;;;12.83;9.70;;;21.50;1.00;;;;;;4993443;28;20826;-73
2023/06/20 01:54:49;;;;;;;17.57;10.13;;;21.60;1.00;;;;;;4993291;28;20898;-73
2023/06/20 01:57:17;;;;;;;16.97;9.47;;;21.50;1.00;;;;;;4996539;28;20451;-73
2023/06/20 01:59:47;;;;;;;14.07;9.40;;;21.50;1.00;;;;;;5019625;28;20884;-73
2023/06/20 02:02:29;;;;;;;33.80;10.13;;;21.50;1.00;;;;;;5035679;28;20488;-79
2023/06/20 02:05:11;;;;;;;11.87;8.93;;;21.50;1.00;;;;;;5040593;28;20455;-79
2023/06/20 02:07:57;;;;;;;13.07;9.40;;;21.50;1.00;;;;;;5039130;28;20422;-79
2023/06/20 02:10:40;;;;;;;12.90;10.00;;;21.40;1.00;;;;;;5035884;28;20419;-78
2023/06/20 02:13:34;;;;;;;18.10;9.10;;;21.40;1.00;;;;;;5025925;28;20497;-79
2023/06/20 02:16:02;;;;;;;20.83;9.30;;;21.40;1.00;;;;;;5020451;28;21127;-74
2023/06/20 02:18:31;;;;;;;18.37;11.30;;;21.40;1.00;;;;;;5035113;28;20521;-73
2023/06/20 02:21:03;;;;;;;13.37;10.20;;;21.40;1.00;;;;;;5034508;28;20523;-73
2023/06/20 02:23:30;;;;;;;13.63;10.33;;;21.40;1.00;;;;;;5036444;28;20945;-74
2023/06/20 02:26:08;;;;;;;14.30;10.50;;;21.40;1.00;;;;;;5032875;28;20435;-73
2023/06/20 02:28:38;;;;;;;14.40;10.40;;;21.40;1.00;;;;;;5033967;28;20438;-74
2023/06/20 02:31:15;;;;;;;15.23;10.77;;;21.40;1.00;;;;;;5035056;28;21036;-73
2023/06/20 02:33:48;;;;;;;16.20;10.80;;;21.40;1.00;;;;;;5034416;28;20416;-73
2023/06/20 02:36:33;;;;;;;24.60;12.23;;;21.40;1.00;;;;;;5034530;28;20498;-83
2023/06/20 02:38:59;;;;;;;14.87;11.27;;;21.40;1.00;;;;;;5038842;28;20420;-82
2023/06/20 02:41:33;;;;;;;18.27;10.93;;;21.40;1.00;;;;;;5034660;28;20413;-82
2023/06/20 02:44:39;;;;;;;13.97;11.87;;;21.40;1.00;;;;;;5034628;28;20538;-82
2023/06/20 02:47:51;;;;;;;13.87;11.47;;;21.40;1.00;;;;;;5029084;28;20469;-87
2023/06/20 02:54:03;;;;;;;18.53;11.40;;;21.20;1.00;;;;;;5017060;28;20453;-87
2023/06/20 03:03:18;;;;;;;13.77;11.53;;;21.30;1.00;;;;;;5034810;28;20492;-88
2023/06/20 03:09:06;;;;;;;16.93;11.93;;;21.30;1.00;;;;;;5034878;28;20413;-88
2023/06/20 03:18:19;;;;;;;16.30;12.13;;;21.40;1.00;;;;;;5033055;28;20425;-87
2023/06/20 03:20:47;;;;;;;13.70;11.40;;;21.40;1.00;;;;;;5033651;28;20419;-87
2023/06/20 03:26:41;;;;;;;13.23;11.40;;;21.40;1.00;;;;;;5027520;28;20386;-87
2023/06/20 03:32:29;;;;;;;13.13;11.00;;;21.40;1.00;;;;;;5048541;28;20923;-82
2023/06/20 03:34:55;;;;;;;16.80;12.00;;;21.40;1.00;;;;;;5029061;28;20426;-82
2023/06/20 03:37:25;;;;;;;20.73;13.40;;;21.30;1.00;;;;;;5017397;28;20523;-82
2023/06/20 03:40:00;;;;;;;16.00;12.77;;;21.30;1.00;;;;;;5030550;28;20183;-82
2023/06/20 03:42:40;;;;;;;16.90;13.27;;;21.30;1.00;;;;;;5032079;28;20445;-82
2023/06/20 03:45:09;;;;;;;17.40;12.97;;;21.20;1.00;;;;;;5031929;28;20423;-82
2023/06/20 03:47:39;;;;;;;16.07;13.30;;;21.20;1.00;;;;;;5028478;28;20433;-83
2023/06/20 03:57:15;;;;;;;17.80;13.07;;;21.10;1.00;;;;;;5033344;28;20541;-82
2023/06/20 04:03:33;;;;;;;15.90;13.17;;;21.10;1.00;;;;;;5029276;28;20423;-82
2023/06/20 04:06:15;;;;;;;17.53;13.47;;;21.10;1.00;;;;;;5022574;28;20527;-82
2023/06/20 04:08:58;;;;;;;14.70;12.83;;;21.20;1.00;;;;;;5039137;28;20429;-82
2023/06/20 04:11:45;;;;;;;15.40;13.40;;;21.20;1.00;;;;;;5039175;28;20853;-82
2023/06/20 04:14:33;;;;;;;17.50;12.80;;;21.10;1.00;;;;;;5016346;28;20425;-82
2023/06/20 04:17:15;;;;;;;18.37;13.30;;;21.10;1.00;;;;;;5025428;28;20506;-83
2023/06/20 04:20:15;;;;;;;15.20;12.60;;;21.10;1.00;;;;;;5029104;28;20969;-82
2023/06/20 04:23:15;;;;;;;16.07;12.60;;;21.10;1.00;;;;;;5017785;28;20451;-82
2023/06/20 04:25:40;;;;;;;13.57;11.97;;;21.10;1.00;;;;;;5028840;28;20426;-82
2023/06/20 04:28:33;;;;;;;17.20;13.73;;;21.10;1.00;;;;;;5030012;28;20524;-82
2023/06/20 04:31:15;;;;;;;17.17;12.67;;;21.10;1.00;;;;;;5048554;28;20212;-82
2023/06/20 04:34:23;;;;;;;15.93;13.60;;;21.20;1.00;;;;;;5034041;28;20418;-82
2023/06/20 04:37:09;;;;;;;17.03;13.10;;;21.20;1.00;;;;;;5029328;28;20464;-82
2023/06/20 04:39:39;;;;;;;17.80;12.97;;;21.30;1.00;;;;;;5029831;28;21072;-83
2023/06/20 04:42:09;;;;;;;18.93;13.20;;;21.30;1.00;;;;;;5034701;28;20420;-82
2023/06/20 04:45:09;;;;;;;16.30;12.70;;;21.40;1.00;;;;;;5031689;28;20790;-82
2023/06/20 04:47:50;;;;;;;18.17;11.80;;;21.40;1.00;;;;;;5031387;28;20488;-82
2023/06/20 04:50:39;;;;;;;19.43;12.83;;;21.50;1.00;;;;;;5033083;28;20463;-81
2023/06/20 04:53:05;;;;;;;16.33;11.90;;;21.60;1.00;;;;;;5031736;28;20428;-82
2023/06/20 04:55:33;;;;;;;18.93;13.47;;;21.80;1.00;;;;;;5031171;28;20506;-82
2023/06/20 04:58:09;;;;;;;15.33;12.40;;;21.90;1.00;;;;;;5035285;28;20640;-82
2023/06/20 05:00:37;;;;;;;14.83;12.80;;;22.00;1.00;;;;;;5054126;28;20953;-82
2023/06/20 05:03:21;;;;;;;18.10;12.27;;;22.10;1.00;;;;;;5051383;28;20516;-83
2023/06/20 05:06:16;;;;;;;15.63;12.40;;;22.20;1.00;;;;;;5051836;28;20420;-82
2023/06/20 05:12:04;;;;;;;15.20;12.20;;;22.30;1.00;;;;;;5036555;28;20390;-81
2023/06/20 05:15:15;;;;;;;12.90;11.50;;;22.40;1.00;;;;;;5035826;28;20432;-81
2023/06/20 05:17:52;;;;;;;15.27;11.93;;;22.60;1.00;;;;;;5034959;28;20452;-82
2023/06/20 05:20:33;;;;;;;13.90;11.50;;;22.70;1.00;;;;;;5051680;28;20520;-83
2023/06/20 05:23:10;;;;;;;14.03;11.10;;;22.70;1.00;;;;;;5035997;28;20746;-83
2023/06/20 05:26:10;;;;;;;23.10;11.33;;;22.70;1.00;;;;;;5044374;28;20416;-83
2023/06/20 05:28:39;;;;;;;12.73;10.97;;;22.80;1.00;;;;;;5040850;28;20569;-83
2023/06/20 05:31:10;;;;;;;16.73;11.80;;;22.80;1.00;;;;;;5034760;28;20926;-83
2023/06/20 05:33:51;;;;;;;19.87;11.33;;;22.80;1.00;;;;;;5024587;28;20782;-82
2023/06/20 05:36:51;;;;;;;22.83;12.20;;;22.80;1.00;;;;;;5044302;28;20458;-81
2023/06/20 05:39:33;;;;;;;20.47;13.07;;;22.80;1.00;;;;;;5031309;28;20468;-82
2023/06/20 05:42:33;;;;;;;13.20;11.43;;;22.80;1.00;;;;;;5034259;28;20489;-82
2023/06/20 05:45:04;;;;;;;17.07;11.40;;;22.80;1.00;;;;;;5040301;28;20937;-82
2023/06/20 05:48:09;;;;;;;17.07;12.90;;;22.80;1.00;;;;;;5035945;28;20441;-83
2023/06/20 05:50:39;;;;;;;13.80;12.30;;;22.80;1.00;;;;;;5025983;28;20407;-86
2023/06/20 05:53:27;;;;;;;17.57;12.10;;;22.80;1.00;;;;;;5033669;28;20422;-81
2023/06/20 05:56:21;;;;;;;19.20;13.40;;;22.80;1.00;;;;;;5031707;28;20462;-82
2023/06/20 05:58:51;;;;;;;16.40;13.63;;;22.90;1.00;;;;;;5033010;28;20435;-82
2023/06/20 06:01:21;;;;;;;17.23;12.10;;;22.90;1.00;;;;;;5034342;28;20494;-82
2023/06/20 06:04:03;;;;;;;14.57;11.90;;;23.00;1.00;;;;;;5023711;28;20529;-81
2023/06/20 06:06:45;;;;;;;19.80;12.13;;;23.10;1.00;;;;;;5026921;28;20456;-81
2023/06/20 06:09:27;;;;;;;15.40;12.03;;;23.00;1.00;;;;;;5021232;28;20427;-81
2023/06/20 06:12:21;;;;;;;14.63;11.93;;;23.10;1.00;;;;;;5042096;28;20433;-81
2023/06/20 06:15:04;;;;;;;16.60;12.50;;;23.10;1.00;;;;;;5038789;28;20424;-82
2023/06/20 06:17:39;;;;;;;14.13;11.90;;;23.20;1.00;;;;;;5033391;28;22650;-82
2023/06/20 06:20:11;;;;;;;15.03;12.90;;;23.40;1.00;;;;;;5026275;28;20951;-81
2023/06/20 06:22:51;;;;;;;14.50;12.17;;;23.50;1.00;;;;;;5015207;28;20476;-82
2023/06/20 06:25:21;;;;;;;13.60;12.07;;;23.70;1.00;;;;;;5036067;28;20519;-81
2023/06/20 06:31:11;;;;;;;17.27;12.50;;;23.60;1.00;;;;;;5024114;28;20861;-81
2023/06/20 06:33:37;;;;;;;16.63;12.57;;;23.70;1.00;;;;;;5033626;28;20444;-82
2023/06/20 06:36:31;;;;;;;13.03;11.37;;;23.80;1.00;;;;;;5032242;28;20465;-82
2023/06/20 06:39:03;;;;;;;15.07;11.80;;;23.80;1.00;;;;;;5037097;28;20453;-81
2023/06/20 06:41:47;;;;;;;16.03;12.20;;;23.80;1.00;;;;;;5039608;28;20413;-81
2023/06/20 06:44:13;;;;;;;17.23;11.90;;;23.90;1.00;;;;;;5032891;28;20465;-81
2023/06/20 06:46:39;;;;;;;14.30;11.03;;;24.10;1.00;;;;;;5032776;28;20478;-81
2023/06/20 06:49:22;;;;;;;14.03;10.47;;;24.20;1.00;;;;;;5032901;28;20432;-81
2023/06/20 06:51:51;;;;;;;11.50;9.80;;;24.40;1.00;;;;;;5031377;28;20500;-81
2023/06/20 06:54:21;;;;;;;21.23;10.40;;;24.50;1.00;;;;;;5033634;28;20455;-81
2023/06/20 06:56:57;;;;;;;13.80;10.10;;;24.50;1.00;;;;;;5030872;28;20495;-81
2023/06/20 06:59:33;;;;;;;15.13;10.73;;;24.60;1.00;;;;;;5033659;28;21021;-81
2023/06/20 07:02:33;;;;;;;14.33;11.30;;;24.60;1.00;;;;;;5023754;28;20472;-81
2023/06/20 07:05:27;;;;;;;10.80;9.70;;;24.80;1.00;;;;;;5033969;28;20451;-84
2023/06/20 07:08:04;;;;;;;16.73;11.50;;;24.90;1.00;;;;;;5033618;28;20511;-85
2023/06/20 07:10:29;;;;;;;20.63;10.50;;;25.20;1.00;;;;;;5032721;28;20429;-85
2023/06/20 07:13:15;;;;;;;14.20;10.50;;;25.40;1.00;;;;;;5030081;28;20446;-84
2023/06/20 07:15:40;;;;;;;14.70;11.83;;;25.20;1.00;;;;;;5020085;28;20218;-85
2023/06/20 07:18:27;;;;;;;12.93;10.73;;;25.20;1.00;;;;;;5050068;28;20433;-84
2023/06/20 07:20:59;;;;;;;12.17;10.67;;;25.10;1.00;;;;;;5033766;28;20258;-84
2023/06/20 07:23:25;;;;;;;12.80;11.03;;;25.40;1.00;;;;;;5042180;28;20417;-84
2023/06/20 07:29:13;;;;;;;14.40;10.50;;;25.70;1.00;;;;;;5029726;28;20285;-85
2023/06/20 07:31:38;;;;;;;16.53;11.10;;;25.50;1.00;;;;;;5048539;28;20945;-85
2023/06/20 07:34:09;;;;;;;15.67;11.77;;;25.80;1.00;;;;;;5033054;28;20215;-85
2023/06/20 07:37:03;;;;;;;14.33;12.20;;;26.10;1.00;;;;;;5025840;28;20738;-85
2023/06/20 07:42:50;;;;;;;14.20;11.20;;;26.40;1.00;;;;;;5034028;28;20391;-85
2023/06/20 07:52:21;;;;;;;12.17;10.40;;;26.80;1.00;;;;;;5036263;28;20402;-84
2023/06/20 07:58:09;;;;;;;11.70;10.30;;;27.30;1.00;;;;;;5027883;28;20441;-84
2023/06/20 08:00:57;;;;;;;17.20;11.60;;;27.60;1.00;;;;;;5046125;28;21065;-87
2023/06/20 08:06:52;;;;;;;15.00;11.00;;;27.80;1.00;;;;;;5027391;28;20509;-86
2023/06/20 08:09:28;;;;;;;13.13;10.70;;;27.90;1.00;;;;;;5034555;28;20430;-86
2023/06/20 08:12:04;;;;;;;21.07;11.77;;;;;;;;;;5052643;28;20769;-86
2023/06/20 08:14:34;;;;;;;11.57;10.33;;;28.00;1.00;;;;;;5042697;28;21034;-86
2023/06/20 08:17:21;;;;;;;12.63;10.50;;;28.20;1.00;;;;;;5037681;28;20537;-86
2023/06/20 08:19:51;;;;;;;13.37;9.93;;;28.20;1.00;;;;;;5023532;28;20420;-84
2023/06/20 08:22:17;;;;;;;15.47;11.40;;;28.20;1.00;;;;;;5033020;28;20420;-84
2023/06/20 08:24:46;;;;;;;11.17;10.03;;;28.30;1.00;;;;;;5033097;28;20491;-84
2023/06/20 08:27:16;;;;;;;18.97;11.20;;;28.40;1.00;;;;;;5032387;28;20443;-84
2023/06/20 08:29:42;;;;;;;13.50;10.40;;;28.50;1.00;;;;;;5025019;28;20480;-83
2023/06/20 08:32:16;;;;;;;13.57;10.70;;;28.50;1.00;;;;;;5032642;28;20463;-84
2023/06/20 08:34:52;;;;;;;16.00;11.63;;;28.60;1.00;;;;;;5034174;28;20438;-84
2023/06/20 08:37:22;;;;;;;15.93;10.53;;;28.60;1.00;;;;;;5023587;28;20974;-84
2023/06/20 08:39:49;;;;;;;19.23;9.97;;;;;;;;;;5036965;28;20457;-84
2023/06/20 08:42:16;;;;;;;12.90;9.73;;;;;;;;;;5032946;28;20465;-84
2023/06/20 08:44:46;;;;;;;14.07;11.63;;;29.00;1.00;;;;;;5030021;28;20843;-83
2023/06/20 08:47:12;;;;;;;12.07;10.53;;;29.00;1.00;;;;;;5035593;28;20458;-84
2023/06/20 08:49:41;;;;;;;11.07;9.90;;;29.10;1.00;;;;;;5036960;28;20422;-85
2023/06/20 08:52:29;;;;;;;11.33;10.00;;;29.40;1.00;;;;;;5031521;28;20180;-84
2023/06/20 08:55:05;;;;;;;12.03;9.67;;;29.50;1.00;;;;;;5035557;28;20441;-84
2023/06/20 08:57:34;;;;;;;13.93;10.30;;;29.50;1.00;;;;;;5025203;28;20528;-84
2023/06/20 09:00:15;;;;;;;11.47;10.27;;;29.60;1.00;;;;;;5035950;28;20556;-84
2023/06/20 09:02:58;;;;;;;13.00;10.00;;;29.60;1.00;;;;;;5023902;28;20443;-84
2023/06/20 09:05:57;;;;;;;13.20;9.50;;;29.40;1.00;;;;;;5029554;28;20450;-86
2023/06/20 09:15:27;;;;;;;13.33;9.27;;;29.80;1.00;;;;;;5016788;28;20403;-87
2023/06/20 09:18:28;;;;;;;12.43;9.43;;;29.70;1.00;;;;;;5039513;28;20446;-86
2023/06/20 09:24:20;;;;;;;11.97;9.87;;;29.00;1.00;;;;;;5035962;28;20509;-86
2023/06/20 09:27:27;;;;;;;11.50;9.70;;;29.30;1.00;;;;;;5036762;28;20478;-86
2023/06/20 09:30:00;;;;;;;11.63;9.50;;;29.50;1.00;;;;;;5035338;28;20439;-86
2023/06/20 09:32:36;;;;;;;12.57;9.20;;;29.90;1.00;;;;;;5035413;28;20430;-86
2023/06/20 09:38:29;;;;;;;12.00;8.80;;;30.40;1.00;;;;;;5036208;28;20426;-87
2023/06/20 09:41:27;;;;;;;11.80;8.70;;;31.10;1.00;;;;;;5033687;28;20485;-87
2023/06/20 09:43:58;;;;;;;15.23;7.80;;;31.40;1.00;;;;;;5051998;28;20416;-87
2023/06/20 09:46:40;;;;;;;8.23;7.53;;;31.60;1.00;;;;;;5035102;28;20502;-86
2023/06/20 09:49:57;;;;;;;11.13;9.27;;;31.50;1.00;;;;;;5032008;28;20518;-87
2023/06/20 09:52:53;;;;;;;8.70;7.87;;;31.20;1.00;;;;;;5035021;28;20426;-84
2023/06/20 09:55:21;;;;;;;13.20;7.70;;;31.30;1.00;;;;;;4960073;28;20553;-85
2023/06/20 09:57:59;;;;;;;8.80;7.90;;;31.40;1.00;;;;;;4974206;28;20481;-84
2023/06/20 10:00:28;;;;;;;21.23;8.10;;;31.20;1.00;;;;;;4958245;28;20436;-85
2023/06/20 10:03:00;;;;;;;10.53;8.60;;;31.30;1.00;;;;;;4974522;28;20448;-85
2023/06/20 10:05:45;;;;;;;9.70;8.70;;;31.30;1.00;;;;;;4988770;28;20433;-85
2023/06/20 10:08:29;;;;;;;11.77;8.70;;;31.10;1.00;;;;;;4978723;28;20421;-86
2023/06/20 10:11:28;;;;;;;9.37;8.47;;;31.30;1.00;;;;;;4960619;28;20422;-86
2023/06/20 10:13:58;;;;;;;12.67;8.40;;;31.20;1.00;;;;;;4958313;28;20488;-86
2023/06/20 10:16:34;;;;;;;9.47;8.50;;;31.50;1.00;;;;;;4974252;28;20508;-86
2023/06/20 10:19:54;;;;;;;12.33;8.20;;;31.50;1.00;;;;;;4975030;28;20772;-86
2023/06/20 10:23:00;;;;;;;8.27;7.30;;;31.70;1.00;;;;;;4910434;29;20857;-87
2023/06/20 10:25:58;;;;;;;9.60;7.47;;;31.70;1.00;;;;;;4919270;29;20481;-87
2023/06/20 10:28:28;;;;;;;8.80;8.00;;;32.00;1.00;;;;;;4916850;29;20602;-86
2023/06/20 10:31:47;;;;;;;8.23;7.43;;;31.70;1.00;;;;;;4900551;29;20429;-87
2023/06/20 10:34:46;;;;;;;9.07;7.43;;;31.90;1.00;;;;;;4976763;28;20491;-87
2023/06/20 10:37:25;;;;;;;12.20;7.90;;;32.00;1.00;;;;;;4975361;28;20466;-84
2023/06/20 10:40:29;;;;;;;11.30;6.80;;;32.00;1.00;;;;;;4987339;28;20428;-85
2023/06/20 10:43:29;;;;;;;10.63;7.23;;;32.10;1.00;;;;;;4987197;28;20445;-85
2023/06/20 10:45:59;;;;;;;8.80;8.00;;;32.10;1.00;;;;;;4986522;28;20433;-85
2023/06/20 10:48:28;;;;;;;12.50;8.23;;;32.30;1.00;;;;;;4988750;28;20445;-85
2023/06/20 10:50:59;;;;;;;8.10;7.40;;;32.40;1.00;;;;;;4975830;28;20429;-84
2023/06/20 10:53:28;;;;;;;7.60;6.90;;;32.70;1.00;;;;;;4997758;28;20997;-87
2023/06/20 10:55:58;;;;;;;8.47;7.43;;;33.00;1.00;;;;;;5000279;28;20476;-87
2023/06/20 10:58:24;;;;;;;7.10;6.40;;;33.30;1.00;;;;;;5033498;28;20428;-86
2023/06/20 11:00:58;;;;;;;9.20;7.27;;;33.20;1.00;;;;;;5042886;28;20473;-86
2023/06/20 11:03:29;;;;;;;9.30;7.50;;;33.10;1.00;;;;;;5036239;28;20265;-85
2023/06/20 11:06:30;;;;;;;13.43;8.23;;;33.20;1.00;;;;;;5034124;28;20800;-87
2023/06/20 11:08:58;;;;;;;10.80;8.30;;;33.10;1.00;;;;;;5032663;28;20529;-86
2023/06/20 11:11:37;;;;;;;7.90;7.20;;;33.30;1.00;;;;;;5033157;28;20452;-86
2023/06/20 11:14:15;;;;;;;11.37;7.20;;;33.50;1.00;;;;;;5029522;28;20530;-86
2023/06/20 11:16:42;;;;;;;7.70;6.90;;;33.40;1.00;;;;;;5047015;28;20551;-87
2023/06/20 11:19:08;;;;;;;7.87;6.50;;;;;;;;;;5032733;28;20435;-86
2023/06/20 11:21:37;;;;;;;8.40;6.20;;;33.30;1.00;;;;;;5048314;28;21014;-86
2023/06/20 11:24:04;;;;;;;7.23;5.90;;;33.10;1.00;;;;;;5034799;28;20484;-86
2023/06/20 11:26:31;;;;;;;9.57;6.77;;;33.10;1.00;;;;;;5032798;28;20474;-87
2023/06/20 11:29:01;;;;;;;7.03;6.20;;;33.40;1.00;;;;;;5028344;28;20448;-86
2023/06/20 11:31:29;;;;;;;5.77;5.10;;;;;;;;;;5031229;28;20527;-87
2023/06/20 11:34:05;;;;;;;6.40;5.80;;;33.40;1.00;;;;;;5033249;28;20461;-87
2023/06/20 11:36:35;;;;;;;6.70;4.87;;;33.60;1.00;;;;;;5032122;28;20525;-86
2023/06/20 11:39:07;;;;;;;5.10;4.60;;;33.60;1.00;;;;;;5030006;28;20423;-84
2023/06/20 11:41:58;;;;;;;5.27;4.77;;;33.70;1.00;;;;;;5029091;28;20449;-85
2023/06/20 11:44:29;;;;;;;10.90;5.27;;;33.80;1.00;;;;;;5024174;28;20439;-85
2023/06/20 11:46:58;;;;;;;6.30;5.10;;;33.70;1.00;;;;;;5046942;28;20443;-85
2023/06/20 11:49:56;;;;;;;6.93;5.37;;;33.90;1.00;;;;;;5033584;28;20505;-85
2023/06/20 11:52:56;;;;;;;5.97;5.20;;;34.10;1.00;;;;;;5029510;28;20434;-86
2023/06/20 11:55:49;;;;;;;5.17;4.77;;;33.90;1.00;;;;;;5049331;28;20783;-87
2023/06/20 11:58:16;;;;;;;5.40;4.70;;;33.80;1.00;;;;;;4973276;28;20445;-87
2023/06/20 12:00:57;;;;;;;6.03;5.30;;;33.80;1.00;;;;;;4972826;28;20432;-86
2023/06/20 12:03:28;;;;;;;5.60;5.00;;;;;;;;;;4991049;28;20427;-87
2023/06/20 12:05:58;;;;;;;5.60;5.20;;;33.90;1.00;;;;;;4974542;28;20469;-87
2023/06/20 12:08:34;;;;;;;5.13;4.63;;;33.90;1.00;;;;;;4979089;28;20440;-87
2023/06/20 12:11:18;;;;;;;4.80;4.30;;;33.60;1.00;;;;;;4993055;28;20437;-86
2023/06/20 12:17:28;;;;;;;4.13;3.83;;;33.40;1.00;;;;;;4990296;28;20912;-88
2023/06/20 12:19:58;;;;;;;4.57;4.27;;;;;;;;;;4996939;28;20479;-90
2023/06/20 12:22:40;;;;;;;4.63;4.23;;;33.60;1.00;;;;;;4992330;28;20438;-90
2023/06/20 12:32:37;;;;;;;5.90;5.40;;;33.50;1.00;;;;;;4990930;28;20919;-87
2023/06/20 12:35:05;;;;;;;5.80;5.20;;;;;;;;;;5011725;28;20522;-85
2023/06/20 12:40:53;;;;;;;6.50;4.97;;;33.30;1.00;;;;;;5018226;28;20384;-89
2023/06/20 12:43:28;;;;;;;5.60;5.20;;;33.50;1.00;;;;;;5038759;28;20898;-89
2023/06/20 12:46:16;;;;;;;4.93;4.53;;;33.70;1.00;;;;;;5039690;28;20184;-87
2023/06/20 12:48:46;;;;;;;4.67;4.27;;;34.00;1.00;;;;;;5035874;28;21032;-86
2023/06/20 12:54:34;;;;;;;5.77;5.20;;;34.60;1.00;;;;;;5037195;28;20379;-85
2023/06/20 12:57:16;;;;;;;5.83;5.20;;;34.50;1.00;;;;;;5044840;28;20452;-84
2023/06/20 13:00:16;;;;;;;7.17;5.37;;;34.80;1.00;;;;;;5035778;28;20183;-86
2023/06/20 13:02:59;;;;;;;7.37;4.90;;;34.70;1.00;;;;;;5035502;28;20466;-86
2023/06/20 13:05:25;;;;;;;4.90;4.50;;;34.70;1.00;;;;;;5035854;28;20407;-86
2023/06/20 13:11:14;;;;;;;5.20;4.70;;;;;;;;;;5037672;28;20182;-91
2023/06/20 13:13:40;;;;;;;4.93;4.43;;;;;;;;;;5053289;28;20465;-91
2023/06/20 13:16:21;;;;;;;6.03;5.50;;;;;;;;;;5035858;28;20566;-93
2023/06/20 13:19:14;;;;;;;5.40;5.00;;;34.40;1.00;;;;;;5051935;28;20438;-91
2023/06/20 13:28:24;;;;;;;5.63;4.90;;;;;;;;;;5035219;28;20900;-87
2023/06/20 13:34:52;;;;;;;5.67;5.17;;;35.10;1.00;;;;;;5025659;28;20801;-90
2023/06/20 13:51:04;;;;;;;7.73;5.23;;;36.30;1.00;;;;;;5036358;28;20461;-94
2023/06/20 13:54:11;;;;;;;6.93;5.43;;;36.30;1.00;;;;;;5047086;28;20435;-96
2023/06/20 13:56:41;;;;;;;5.67;4.30;;;;;;;;;;5034740;28;20534;-89
2023/06/20 13:59:46;;;;;;;7.47;4.60;;;36.30;1.00;;;;;;5039274;28;20958;-89
2023/06/20 14:02:29;;;;;;;6.67;4.90;;;;;;;;;;5034603;28;20443;-89
2023/06/20 14:11:38;;;;;;;6.63;4.63;;;36.80;1.00;;;;;;5035709;28;20470;-87
2023/06/20 14:14:04;;;;;;;4.77;4.27;;;36.80;1.00;;;;;;5034374;28;20786;-83
2023/06/20 14:17:16;;;;;;;4.73;4.23;;;36.20;1.00;;;;;;5035296;28;20234;-85
2023/06/20 14:19:46;;;;;;;6.37;4.43;;;35.70;1.00;;;;;;5034744;28;20464;-85
2023/06/20 14:22:16;;;;;;;6.53;4.40;;;35.30;1.00;;;;;;5034445;28;20453;-85
2023/06/20 14:25:28;;;;;;;4.33;4.03;;;35.50;1.00;;;;;;5034311;28;20431;-94
2023/06/20 14:27:58;;;;;;;7.33;4.73;;;35.60;1.00;;;;;;5046306;28;20450;-86
2023/06/20 14:31:04;;;;;;;5.30;4.80;;;35.90;1.00;;;;;;5022761;28;20817;-87
2023/06/20 14:33:52;;;;;;;6.13;4.20;;;35.90;1.00;;;;;;5037020;28;20431;-87
2023/06/20 14:36:58;;;;;;;5.63;4.50;;;35.70;1.00;;;;;;5026194;28;20495;-87
2023/06/20 14:39:27;;;;;;;5.03;4.60;;;35.50;1.00;;;;;;5022964;28;20436;-87
2023/06/20 14:42:10;;;;;;;10.90;4.60;;;35.20;1.00;;;;;;5038250;28;20533;-87
2023/06/20 14:47:58;;;;;;;5.50;4.97;;;35.20;1.00;;;;;;5034215;28;20438;-89
2023/06/20 14:50:25;;;;;;;5.33;4.83;;;35.40;1.00;;;;;;5046273;28;20962;-86
2023/06/20 14:53:29;;;;;;;5.33;4.83;;;35.60;1.00;;;;;;5046026;28;20184;-87
2023/06/20 14:56:40;;;;;;;6.90;5.17;;;36.20;1.00;;;;;;5019761;28;20486;-87
2023/06/20 14:59:16;;;;;;;7.30;5.40;;;36.10;1.00;;;;;;5050001;28;20430;-87
2023/06/20 15:01:46;;;;;;;5.43;4.93;;;36.50;1.00;;;;;;5036562;28;21016;-90
2023/06/20 15:04:23;;;;;;;8.13;5.23;;;36.90;1.00;;;;;;5030632;28;20436;-86
2023/06/20 15:07:22;;;;;;;5.43;4.93;;;36.90;1.00;;;;;;5023588;28;20425;-85
2023/06/20 15:09:58;;;;;;;7.77;5.70;;;37.80;1.00;;;;;;5033027;28;20443;-86
2023/06/20 15:12:40;;;;;;;7.40;5.30;;;38.20;1.00;;;;;;5042957;28;20575;-86
2023/06/20 15:15:40;;;;;;;5.20;4.80;;;38.10;1.00;;;;;;5033903;28;20891;-89
2023/06/20 15:18:11;;;;;;;7.03;4.97;;;38.40;1.00;;;;;;5037900;28;20537;-88
2023/06/20 15:24:12;;;;;;;5.07;4.53;;;40.90;1.00;;;;;;5014571;28;20403;-86
2023/06/20 15:26:40;;;;;;;4.63;4.23;;;42.00;1.00;;;;;;5030938;28;20439;-88
2023/06/20 15:29:28;;;;;;;4.60;4.20;;;43.00;1.00;;;;;;5032061;28;20422;-86
2023/06/20 15:31:58;;;;;;;5.17;4.27;;;43.60;1.00;;;;;;5034091;28;20442;-89
2023/06/20 15:34:41;;;;;;;4.70;4.20;;;44.20;1.00;;;;;;5029092;28;20467;-87
2023/06/20 15:37:08;;;;;;;3.33;3.17;;;45.00;1.00;;;;;;5043957;28;20550;-87
2023/06/20 15:39:34;;;;;;;4.13;3.80;;;45.90;1.00;;;;;;5033049;28;20470;-88
2023/06/20 15:42:16;;;;;;;4.27;3.97;;;44.90;1.00;;;;;;5033936;28;20435;-87
2023/06/20 15:45:10;;;;;;;4.03;3.73;;;45.80;1.00;;;;;;5030754;28;20446;-89
2023/06/20 15:47:44;;;;;;;3.80;3.50;;;;;;;;;;5033085;28;20787;-90
2023/06/20 15:50:46;;;;;;;3.97;3.63;;;46.00;1.00;;;;;;5028360;28;20448;-90
2023/06/20 15:53:34;;;;;;;3.83;3.60;;;44.90;1.00;;;;;;5042079;28;20438;-89
2023/06/20 15:56:01;;;;;;;5.60;3.97;;;;;;;;;;5033796;28;20557;-89
2023/06/20 15:58:27;;;;;;;5.73;3.60;;;;;;;;;;5030141;28;20440;-87
2023/06/20 16:00:54;;;;;;;3.83;3.63;;;;;;;;;;5018098;28;20941;-86
2023/06/20 16:03:29;;;;;;;7.03;4.10;;;;;;;;;;5031262;28;20420;-85
2023/06/20 16:05:57;;;;;;;6.73;3.90;;;;;;;;;;5037582;28;20947;-84
2023/06/20 16:15:11;;;;;;;3.57;3.27;;;;;;;;;;5027665;28;20977;-87
2023/06/20 16:17:43;;;;;;;5.87;3.80;;;;;;;;;;5045774;28;20473;-87